createdAt,value
2023-08-14T00:00:55.075Z,1.50
2023-08-14T00:07:15.240Z,1.50
2023-08-14T00:10:18.198Z,1.50
2023-08-14T00:13:22.201Z,1.30
2023-08-14T00:16:26.145Z,1.40
2023-08-14T00:19:28.960Z,1.60
2023-08-14T00:22:31.934Z,1.50
2023-08-14T00:25:34.808Z,1.50
2023-08-14T00:28:37.776Z,1.50
2023-08-14T00:31:40.661Z,1.70
2023-08-14T00:34:43.527Z,1.30
2023-08-14T00:37:48.670Z,1.80
2023-08-14T00:40:54.211Z,1.70
2023-08-14T00:43:57.137Z,1.30
2023-08-14T00:47:00.008Z,1.50
2023-08-14T00:50:05.436Z,1.60
2023-08-14T00:53:08.821Z,1.50
2023-08-14T00:56:11.596Z,1.30
2023-08-14T00:59:14.354Z,1.80
2023-08-14T01:02:17.544Z,1.70
2023-08-14T01:05:20.816Z,1.50
2023-08-14T01:08:23.778Z,1.60
2023-08-14T01:11:44.980Z,1.70
2023-08-14T01:14:53.973Z,1.70
2023-08-14T01:18:03.069Z,1.30
2023-08-14T01:21:31.750Z,1.50
2023-08-14T01:25:07.675Z,1.50
2023-08-14T01:28:11.560Z,1.60
2023-08-14T01:31:14.649Z,1.70
2023-08-14T01:34:17.825Z,1.60
2023-08-14T01:37:34.298Z,1.80
2023-08-14T01:41:01.220Z,1.80
2023-08-14T01:44:07.358Z,1.80
2023-08-14T01:47:14.530Z,1.60
2023-08-14T01:50:18.319Z,2.00
2023-08-14T01:53:21.196Z,1.80
2023-08-14T01:56:24.059Z,2.00
2023-08-14T01:59:43.090Z,1.60
2023-08-14T02:02:45.925Z,1.80
2023-08-14T02:05:48.840Z,1.80
2023-08-14T02:08:51.605Z,1.90
2023-08-14T02:11:55.340Z,1.80
2023-08-14T02:14:58.785Z,1.80
2023-08-14T02:18:01.795Z,2.10
2023-08-14T02:21:04.565Z,1.90
2023-08-14T02:24:08.372Z,1.90
2023-08-14T02:27:11.280Z,2.20
2023-08-14T02:30:14.359Z,2.20
2023-08-14T02:33:17.228Z,2.10
2023-08-14T02:36:20.001Z,2.30
2023-08-14T02:39:22.763Z,2.70
2023-08-14T02:42:25.631Z,2.50
2023-08-14T02:45:28.832Z,2.40
2023-08-14T02:48:31.636Z,2.30
2023-08-14T02:51:34.447Z,2.40
2023-08-14T02:54:37.216Z,2.10
2023-08-14T02:57:40.082Z,2.20
2023-08-14T03:00:42.949Z,2.40
2023-08-14T03:03:51.360Z,2.20
2023-08-14T03:06:54.221Z,2.40
2023-08-14T03:09:57.796Z,1.80
2023-08-14T03:13:02.518Z,2.40
2023-08-14T03:16:05.393Z,2.30
2023-08-14T03:19:08.271Z,2.10
2023-08-14T03:22:11.127Z,2.30
2023-08-14T03:25:14.094Z,2.20
2023-08-14T03:28:16.910Z,2.20
2023-08-14T03:31:19.762Z,2.50
2023-08-14T03:34:22.626Z,2.20
2023-08-14T03:37:25.501Z,2.60
2023-08-14T03:40:28.765Z,2.30
2023-08-14T03:43:31.842Z,2.20
2023-08-14T03:46:34.633Z,2.20
2023-08-14T03:49:37.623Z,2.40
2023-08-14T03:52:40.644Z,2.30
2023-08-14T03:55:45.871Z,2.50
2023-08-14T03:58:48.741Z,2.20
2023-08-14T04:01:51.548Z,2.50
2023-08-14T04:04:54.377Z,2.40
2023-08-14T04:07:57.249Z,2.50
2023-08-14T04:11:00.116Z,2.30
2023-08-14T04:14:03.706Z,2.50
2023-08-14T04:17:06.572Z,2.50
2023-08-14T04:20:10.961Z,2.70
2023-08-14T04:23:13.746Z,2.60
2023-08-14T04:26:16.515Z,2.90
2023-08-14T04:29:19.600Z,2.90
2023-08-14T04:32:22.362Z,3.00
2023-08-14T04:35:28.057Z,2.50
2023-08-14T04:38:31.372Z,2.50
2023-08-14T04:41:34.367Z,2.50
2023-08-14T04:44:37.214Z,2.20
2023-08-14T04:47:40.134Z,2.50
2023-08-14T04:50:43.057Z,2.60
2023-08-14T04:53:45.821Z,2.70
2023-08-14T04:56:48.591Z,2.60
2023-08-14T04:59:51.358Z,2.60
2023-08-14T05:02:54.180Z,2.60
2023-08-14T05:05:57.103Z,2.50
2023-08-14T05:09:02.156Z,2.60
2023-08-14T05:12:07.449Z,2.50
2023-08-14T05:15:11.136Z,2.60
2023-08-14T05:18:14.109Z,2.60
2023-08-14T05:21:16.977Z,2.40
2023-08-14T05:24:19.745Z,2.00
2023-08-14T05:27:22.508Z,2.10
2023-08-14T05:30:25.498Z,2.60
2023-08-14T05:33:28.269Z,2.30
2023-08-14T05:36:30.969Z,2.60
2023-08-14T05:39:33.811Z,2.60
2023-08-14T05:42:36.660Z,2.00
2023-08-14T05:45:43.524Z,2.10
2023-08-14T05:48:47.406Z,2.30
2023-08-14T05:51:50.180Z,2.40
2023-08-14T05:54:53.052Z,2.20
2023-08-14T05:57:57.460Z,2.60
2023-08-14T06:01:00.378Z,2.50
2023-08-14T06:04:04.143Z,1.60
2023-08-14T06:07:06.984Z,1.90
2023-08-14T06:10:10.162Z,2.20
2023-08-14T06:13:13.030Z,1.70
2023-08-14T06:16:15.826Z,2.10
2023-08-14T06:19:19.285Z,2.00
2023-08-14T06:22:22.050Z,2.20
2023-08-14T06:25:26.777Z,2.20
2023-08-14T06:28:29.484Z,2.20
2023-08-14T06:31:32.297Z,1.70
2023-08-14T06:34:35.271Z,2.00
2023-08-14T06:37:38.037Z,2.20
2023-08-14T06:40:40.812Z,1.90
2023-08-14T06:43:43.784Z,2.10
2023-08-14T06:46:46.824Z,2.00
2023-08-14T06:49:50.130Z,2.20
2023-08-14T06:52:54.022Z,2.00
2023-08-14T06:55:57.212Z,2.00
2023-08-14T06:58:59.976Z,1.60
2023-08-14T07:02:02.968Z,1.90
2023-08-14T07:05:05.810Z,1.50
2023-08-14T07:08:08.532Z,1.70
2023-08-14T07:11:11.259Z,1.60
2023-08-14T07:14:14.470Z,1.40
2023-08-14T07:17:17.702Z,1.50
2023-08-14T07:20:25.904Z,1.40
2023-08-14T07:23:29.583Z,1.80
2023-08-14T07:26:32.461Z,1.40
2023-08-14T07:29:36.306Z,1.50
2023-08-14T07:32:39.380Z,1.50
2023-08-14T07:35:43.233Z,1.40
2023-08-14T07:38:46.082Z,1.40
2023-08-14T07:41:48.946Z,1.30
2023-08-14T07:44:51.923Z,1.20
2023-08-14T07:47:55.434Z,1.20
2023-08-14T07:50:58.292Z,1.10
2023-08-14T07:54:01.295Z,1.10
2023-08-14T07:57:04.839Z,1.30
2023-08-14T08:00:08.943Z,1.30
2023-08-14T08:03:11.931Z,1.50
2023-08-14T08:06:14.929Z,1.00
2023-08-14T08:09:18.564Z,1.30
2023-08-14T08:12:21.443Z,1.30
2023-08-14T08:15:24.207Z,1.20
2023-08-14T08:18:27.078Z,1.10
2023-08-14T08:21:29.938Z,1.10
2023-08-14T08:24:32.706Z,1.10
2023-08-14T08:27:36.912Z,1.30
2023-08-14T08:30:40.412Z,1.40
2023-08-14T08:33:43.268Z,1.20
2023-08-14T08:36:46.029Z,1.30
2023-08-14T08:39:49.617Z,1.00
2023-08-14T08:42:52.900Z,1.00
2023-08-14T08:45:59.571Z,1.00
2023-08-14T08:49:04.729Z,1.00
2023-08-14T08:52:08.884Z,1.10
2023-08-14T08:55:14.335Z,1.80
2023-08-14T08:58:20.347Z,1.10
2023-08-14T09:01:23.587Z,1.00
2023-08-14T09:04:26.767Z,0.80
2023-08-14T09:07:29.873Z,0.80
2023-08-14T09:10:32.746Z,0.70
2023-08-14T09:13:35.721Z,1.40
2023-08-14T09:16:38.493Z,1.20
2023-08-14T09:19:41.460Z,0.80
2023-08-14T09:22:44.436Z,0.60
2023-08-14T09:25:48.119Z,0.80
2023-08-14T09:28:51.868Z,0.70
2023-08-14T09:31:54.824Z,0.70
2023-08-14T09:35:04.711Z,0.90
2023-08-14T09:38:07.590Z,0.70
2023-08-14T09:41:10.455Z,0.90
2023-08-14T09:44:13.431Z,0.70
2023-08-14T09:47:16.811Z,0.60
2023-08-14T09:50:22.600Z,0.70
2023-08-14T09:53:25.337Z,1.00
2023-08-14T09:56:28.115Z,0.80
2023-08-14T09:59:30.837Z,0.60
2023-08-14T10:02:35.032Z,0.90
2023-08-14T10:05:39.242Z,0.80
2023-08-14T10:08:45.934Z,1.10
2023-08-14T10:11:49.456Z,0.60
2023-08-14T10:15:02.975Z,0.70
2023-08-14T10:18:11.467Z,0.90
2023-08-14T10:21:17.383Z,0.70
2023-08-14T10:24:21.032Z,1.00
2023-08-14T10:27:24.607Z,0.80
2023-08-14T10:30:28.687Z,1.00
2023-08-14T10:33:32.111Z,0.80
2023-08-14T10:36:34.918Z,0.80
2023-08-14T10:39:37.937Z,0.80
2023-08-14T10:42:48.790Z,0.80
2023-08-14T10:45:53.181Z,0.90
2023-08-14T10:48:55.908Z,0.90
2023-08-14T10:52:02.912Z,1.00
2023-08-14T10:55:16.529Z,0.70
2023-08-14T10:58:32.561Z,1.00
2023-08-14T11:01:38.402Z,0.90
2023-08-14T11:05:00.363Z,0.90
2023-08-14T11:08:04.319Z,0.90
2023-08-14T11:11:07.108Z,0.80
2023-08-14T11:14:10.806Z,0.80
2023-08-14T11:17:13.675Z,0.90
2023-08-14T11:20:16.957Z,0.70
2023-08-14T11:23:19.720Z,0.70
2023-08-14T11:26:22.492Z,0.90
2023-08-14T11:29:25.559Z,0.90
2023-08-14T11:32:28.681Z,0.80
2023-08-14T11:35:31.978Z,0.90
2023-08-14T11:38:34.884Z,0.90
2023-08-14T11:41:37.652Z,0.80
2023-08-14T11:44:40.534Z,1.00
2023-08-14T11:47:49.088Z,1.00
2023-08-14T11:50:51.999Z,1.00
2023-08-14T11:53:55.177Z,0.90
2023-08-14T11:56:58.042Z,0.90
2023-08-14T12:00:03.950Z,1.00
2023-08-14T12:03:08.683Z,0.70
2023-08-14T12:06:12.291Z,1.00
2023-08-14T12:09:15.051Z,2.30
2023-08-14T12:12:18.402Z,19.20
2023-08-14T12:15:24.295Z,9.90
2023-08-14T12:18:27.871Z,9.40
2023-08-14T12:21:30.829Z,5.10
2023-08-14T12:24:44.696Z,3.80
2023-08-14T12:27:47.666Z,2.50
2023-08-14T12:30:51.231Z,2.70
2023-08-14T12:33:59.444Z,1.90
2023-08-14T12:37:09.042Z,1.70
2023-08-14T12:40:12.087Z,1.40
2023-08-14T12:43:15.102Z,1.20
2023-08-14T12:46:18.078Z,1.20
2023-08-14T12:49:20.911Z,0.90
2023-08-14T12:52:27.514Z,0.90
2023-08-14T12:55:31.772Z,1.10
2023-08-14T12:58:34.566Z,1.20
2023-08-14T13:01:37.631Z,1.10
2023-08-14T13:07:43.757Z,0.80
2023-08-14T13:10:46.523Z,1.10
2023-08-14T13:13:51.048Z,0.80
2023-08-14T13:16:53.880Z,1.00
2023-08-14T13:19:56.773Z,1.00
2023-08-14T13:22:59.554Z,1.20
2023-08-14T13:26:02.360Z,1.00
2023-08-14T13:29:05.383Z,1.00
2023-08-14T13:32:08.118Z,1.00
2023-08-14T13:35:10.934Z,0.90
2023-08-14T13:38:13.989Z,1.00
2023-08-14T13:41:16.960Z,1.20
2023-08-14T13:44:19.934Z,1.20
2023-08-14T13:47:23.650Z,1.10
2023-08-14T13:50:34.753Z,1.20
2023-08-14T13:53:37.962Z,1.20
2023-08-14T13:56:40.839Z,1.10
2023-08-14T13:59:43.648Z,1.30
2023-08-14T14:02:46.479Z,1.20
2023-08-14T14:05:49.242Z,1.20
2023-08-14T14:08:52.466Z,1.40
2023-08-14T14:11:55.256Z,1.20
2023-08-14T14:14:58.062Z,1.10
2023-08-14T14:18:00.986Z,1.20
2023-08-14T14:21:04.097Z,1.40
2023-08-14T14:24:07.328Z,1.20
2023-08-14T14:27:10.145Z,1.40
2023-08-14T14:30:13.217Z,1.50
2023-08-14T14:33:16.195Z,1.30
2023-08-14T14:36:18.961Z,1.30
2023-08-14T14:39:21.729Z,1.30
2023-08-14T14:42:26.114Z,1.40
2023-08-14T14:45:34.842Z,1.40
2023-08-14T14:48:38.317Z,1.40
2023-08-14T14:51:41.303Z,1.10
2023-08-14T14:54:44.170Z,1.20
2023-08-14T14:57:46.936Z,1.10
2023-08-14T15:00:51.738Z,1.20
2023-08-14T15:03:54.730Z,1.30
2023-08-14T15:07:03.117Z,1.20
2023-08-14T15:10:06.540Z,1.60
2023-08-14T15:13:09.323Z,1.30
2023-08-14T15:16:12.118Z,1.20
2023-08-14T15:19:16.279Z,1.20
2023-08-14T15:22:19.104Z,1.30
2023-08-14T15:25:22.733Z,1.20
2023-08-14T15:28:25.469Z,1.20
2023-08-14T15:31:28.298Z,1.00
2023-08-14T15:34:31.603Z,1.00
2023-08-14T15:37:35.184Z,1.60
2023-08-14T15:40:46.347Z,1.60
2023-08-14T15:43:49.127Z,1.30
2023-08-14T15:46:51.999Z,1.10
2023-08-14T15:49:54.786Z,1.00
2023-08-14T15:52:57.623Z,1.20
2023-08-14T15:56:00.392Z,0.90
2023-08-14T15:59:03.469Z,1.30
2023-08-14T16:02:06.951Z,1.70
2023-08-14T16:05:10.022Z,1.40
2023-08-14T16:08:13.305Z,1.60
2023-08-14T16:11:16.171Z,1.40
2023-08-14T16:14:18.867Z,1.40
2023-08-14T16:17:21.651Z,1.30
2023-08-14T16:20:24.377Z,1.50
2023-08-14T16:23:27.237Z,1.20
2023-08-14T16:26:30.212Z,1.20
2023-08-14T16:29:33.291Z,1.20
2023-08-14T16:32:35.988Z,1.10
2023-08-14T16:35:38.723Z,0.90
2023-08-14T16:38:41.437Z,0.90
2023-08-14T16:41:44.748Z,1.00
2023-08-14T16:44:47.637Z,1.30
2023-08-14T16:47:50.416Z,1.40
2023-08-14T16:50:54.101Z,1.30
2023-08-14T16:53:56.820Z,1.30
2023-08-14T16:56:59.534Z,1.60
2023-08-14T17:00:02.413Z,1.30
2023-08-14T17:03:06.162Z,1.70
2023-08-14T17:06:09.265Z,1.40
2023-08-14T17:09:14.932Z,1.60
2023-08-14T17:12:18.460Z,3.30
2023-08-14T17:15:21.464Z,2.00
2023-08-14T17:18:24.743Z,1.90
2023-08-14T17:21:27.454Z,1.70
2023-08-14T17:24:30.377Z,1.80
2023-08-14T17:27:33.152Z,1.70
2023-08-14T17:30:39.078Z,1.80
2023-08-14T17:33:42.106Z,1.50
2023-08-14T17:36:45.026Z,1.90
2023-08-14T17:39:47.897Z,1.80
2023-08-14T17:42:51.272Z,2.20
2023-08-14T17:45:54.686Z,2.00
2023-08-14T17:48:57.523Z,2.10
2023-08-14T17:52:00.256Z,2.00
2023-08-14T17:55:03.166Z,2.20
2023-08-14T17:58:05.931Z,2.10
2023-08-14T18:01:08.724Z,2.00
2023-08-14T18:04:11.571Z,1.80
2023-08-14T18:07:15.669Z,1.90
2023-08-14T18:10:19.922Z,2.00
2023-08-14T18:13:22.745Z,2.00
2023-08-14T18:16:25.602Z,2.30
2023-08-14T18:19:29.848Z,2.10
2023-08-14T18:22:32.985Z,2.20
2023-08-14T18:25:35.777Z,1.90
2023-08-14T18:28:38.674Z,1.90
2023-08-14T18:31:41.438Z,2.10
2023-08-14T18:34:44.566Z,2.40
2023-08-14T18:37:47.439Z,2.90
2023-08-14T18:40:50.317Z,2.70
2023-08-14T18:43:53.076Z,2.50
2023-08-14T18:46:55.956Z,2.80
2023-08-14T18:49:59.022Z,2.80
2023-08-14T18:53:03.427Z,2.30
2023-08-14T18:56:06.191Z,2.60
2023-08-14T18:59:11.924Z,2.80
2023-08-14T19:02:15.265Z,2.40
2023-08-14T19:05:18.590Z,2.20
2023-08-14T19:08:21.355Z,2.50
2023-08-14T19:11:24.231Z,2.00
2023-08-14T19:14:27.105Z,2.40
2023-08-14T19:17:29.885Z,2.50
2023-08-14T19:20:32.630Z,3.00
2023-08-14T19:23:35.608Z,2.70
2023-08-14T19:26:38.373Z,2.40
2023-08-14T19:29:42.784Z,2.40
2023-08-14T19:32:45.590Z,2.80
2023-08-14T19:35:48.520Z,3.10
2023-08-14T19:38:56.506Z,3.00
2023-08-14T19:41:59.270Z,2.70
2023-08-14T19:45:02.059Z,2.70
2023-08-14T19:48:05.380Z,2.30
2023-08-14T19:51:09.487Z,2.40
2023-08-14T19:54:12.291Z,2.70
2023-08-14T19:57:15.158Z,2.60
2023-08-14T20:00:18.231Z,2.40
2023-08-14T20:03:21.008Z,2.40
2023-08-14T20:06:24.702Z,2.20
2023-08-14T20:09:27.559Z,1.80
2023-08-14T20:12:30.328Z,1.90
2023-08-14T20:15:33.708Z,2.40
2023-08-14T20:18:36.516Z,2.20
2023-08-14T20:21:41.287Z,2.30
2023-08-14T20:24:44.060Z,2.10
2023-08-14T20:27:46.980Z,1.90
2023-08-14T20:30:50.042Z,1.80
2023-08-14T20:33:53.897Z,2.10
2023-08-14T20:36:56.659Z,2.30
2023-08-14T20:39:59.532Z,2.50
2023-08-14T20:43:09.765Z,2.30
2023-08-14T20:46:12.663Z,2.00
2023-08-14T20:49:15.408Z,2.70
2023-08-14T20:52:23.301Z,2.40
2023-08-14T20:58:29.241Z,2.20
2023-08-14T21:01:31.996Z,2.90
2023-08-14T21:04:35.914Z,2.50
2023-08-14T21:07:38.779Z,2.60
2023-08-14T21:10:42.770Z,2.10
2023-08-14T21:13:45.445Z,2.20
2023-08-14T21:16:48.211Z,5.60
2023-08-14T21:19:50.931Z,7.90
2023-08-14T21:23:02.012Z,3.60
2023-08-14T21:26:04.703Z,2.90
2023-08-14T21:29:07.565Z,2.80
2023-08-14T21:32:13.632Z,2.80
2023-08-14T21:35:16.481Z,2.60
2023-08-14T21:38:19.271Z,2.80
2023-08-14T21:41:22.125Z,3.00
2023-08-14T21:44:24.886Z,2.80
2023-08-14T21:47:27.678Z,2.70
2023-08-14T21:50:30.464Z,2.90
2023-08-14T21:53:33.399Z,2.90
2023-08-14T21:56:36.257Z,2.80
2023-08-14T21:59:39.022Z,2.70
2023-08-14T22:02:41.949Z,2.50
2023-08-14T22:05:44.859Z,2.80
2023-08-14T22:08:47.988Z,2.10
2023-08-14T22:11:51.014Z,2.20
2023-08-14T22:14:53.772Z,2.20
2023-08-14T22:17:56.562Z,2.20
2023-08-14T22:20:59.311Z,2.00
2023-08-14T22:24:02.183Z,1.90
2023-08-14T22:27:06.540Z,2.30
2023-08-14T22:30:09.908Z,1.90
2023-08-14T22:33:12.788Z,2.10
2023-08-14T22:36:15.603Z,2.10
2023-08-14T22:39:18.446Z,1.80
2023-08-14T22:42:22.875Z,2.00
2023-08-14T22:45:26.086Z,1.60
2023-08-14T22:48:28.979Z,2.20
2023-08-14T22:51:31.842Z,1.90
2023-08-14T22:54:35.795Z,2.10
2023-08-14T22:57:38.561Z,2.20
2023-08-14T23:00:41.333Z,2.00
2023-08-14T23:03:51.212Z,2.30
2023-08-14T23:06:54.228Z,2.80
2023-08-14T23:09:56.893Z,3.10
2023-08-14T23:12:59.769Z,3.10
2023-08-14T23:16:05.706Z,2.50
2023-08-14T23:19:08.589Z,3.40
2023-08-14T23:22:12.369Z,2.90
2023-08-14T23:25:15.242Z,3.30
2023-08-14T23:28:18.023Z,3.30
2023-08-14T23:31:21.726Z,3.20
2023-08-14T23:34:24.874Z,3.70
2023-08-14T23:37:27.744Z,3.50
2023-08-14T23:40:30.506Z,3.40
2023-08-14T23:43:33.284Z,3.40
2023-08-14T23:46:36.069Z,3.10
2023-08-14T23:49:38.913Z,3.70
2023-08-14T23:52:41.683Z,3.20
2023-08-14T23:55:46.090Z,3.10
2023-08-14T23:58:48.904Z,3.30
